Anthony, New Mexico
Current Conditions -  °F | °C
As of 12:58 PM on Saturday 20 Dec 2014 (Local Time) from KBIF Reporting Station
Haze Haze  
Wind Chill: 53°   Ceiling: Unl
Heat Index: 53°   Visibility: 6mi
Dew Point: 26°   Wind: 2mph
Humidity: 36%   Direction: NA
Pressure: 30.1"   Gusts: NA
Location:  32°N, 106.6°W
Report Text: KBIF 201958Z AUTO VRB02KT 6SM HZ CLR 11/M03 A3010 RMK AO2 SLP179 T01141031 $
Loading
Personal Weather Stations






























Interactive Weather Map New forecast layout! Learn more

10-Day Weather Forecast

Advertisements
Track Severe Weather on mobile